Terminal Aerodrome Forecast
Issued by NWS Pendleton, OR

Home | Current Version | Previous Version | Text Only | Print | Product List | Glossary On
Versions: 1 2 3 4 5 6 7 8 9 10 11 12 13 14 15 16
000
FTUS46 KPDT 281700
TAFPDT
TAF
KPDT 281720Z 2818/2918 26022G31KT P6SM FEW050
     FM282100 27017G26KT P6SM SCT060
     FM290200 27011KT P6SM FEW060 FEW250
     FM290600 14005KT P6SM SKC
     FM291300 16005KT P6SM SCT120=

USA.gov is the U.S. government's official web portal to all federal, state and local government web resources and services.